Sugar Notch, Pennsylvania
Current Conditions -  °F | °C
As of 9:54 AM on Wednesday 22 Oct 2014 (Local Time) from KAVP Reporting Station
Overcast Overcast  
Wind Chill: 53°   Ceiling: 1700
Heat Index: 53°   Visibility: 10mi
Dew Point: 47°   Wind: 10mph
Humidity: 80%   Direction: 20°NNE
Pressure: 30.01"   Gusts: NA
Location:  41.1921°N, 75.9213°W
Report Text: KAVP 221354Z 02009KT 10SM OVC017 12/08 A3001 RMK AO2 RAB1257E28 SLP160 P0000 T01170083
Loading
Personal Weather Stations






























Interactive Weather Map
Tropical Storm Tracking
New forecast layout! Learn more

10-Day Weather Forecast

Advertisements
Track Severe Weather on mobile